createdAt,value
2023-04-21T00:01:29.772Z,101843.06
2023-04-21T00:03:56.890Z,101843.91
2023-04-21T00:06:24.000Z,101844.72
2023-04-21T00:08:51.027Z,101840.41
2023-04-21T00:11:18.434Z,101837.75
2023-04-21T00:13:45.786Z,101836.78
2023-04-21T00:16:14.043Z,101835.13
2023-04-21T00:18:41.260Z,101835.94
2023-04-21T00:21:08.173Z,101828.53
2023-04-21T00:23:35.215Z,101825.19
2023-04-21T00:26:02.816Z,101827.84
2023-04-21T00:28:30.264Z,101823.22
2023-04-21T00:30:57.213Z,101814.28
2023-04-21T00:33:26.491Z,101812.28
2023-04-21T00:35:54.429Z,101808.97
2023-04-21T00:38:21.362Z,101819.56
2023-04-21T00:40:48.300Z,101815.94
2023-04-21T00:43:15.238Z,101817.75
2023-04-21T00:45:45.257Z,101814.59
2023-04-21T00:48:12.258Z,101815.63
2023-04-21T00:50:41.193Z,101811.31
2023-04-21T00:53:09.570Z,101801.09
2023-04-21T00:55:36.894Z,101805.22
2023-04-21T00:58:04.165Z,101804.72
2023-04-21T01:00:31.626Z,101805.72
2023-04-21T01:03:01.545Z,101805.09
2023-04-21T01:05:28.583Z,101803.41
2023-04-21T01:07:56.931Z,101793.84
2023-04-21T01:10:24.124Z,101792.19
2023-04-21T01:12:51.046Z,101805.41
2023-04-21T01:15:18.127Z,101787.22
2023-04-21T01:17:45.429Z,101788.56
2023-04-21T01:20:15.241Z,101795.66
2023-04-21T01:22:44.885Z,101781.78
2023-04-21T01:25:11.871Z,101790.72
2023-04-21T01:27:38.777Z,101775.53
2023-04-21T01:30:09.890Z,101789.25
2023-04-21T01:32:37.078Z,101778.16
2023-04-21T01:35:06.438Z,101787.94
2023-04-21T01:37:34.201Z,101772.09
2023-04-21T01:40:07.203Z,101773.56
2023-04-21T01:42:36.648Z,101784.16
2023-04-21T01:45:04.600Z,101775.72
2023-04-21T01:47:32.052Z,101767.78
2023-04-21T01:50:00.218Z,101777.69
2023-04-21T01:52:27.210Z,101768.94
2023-04-21T01:54:54.942Z,101753.91
2023-04-21T01:57:23.222Z,101756.22
2023-04-21T01:59:50.145Z,101766.00
2023-04-21T02:02:17.065Z,101768.97
2023-04-21T02:04:44.003Z,101761.88
2023-04-21T02:07:10.855Z,101769.63
2023-04-21T02:09:37.727Z,101758.53
2023-04-21T02:12:05.433Z,101753.25
2023-04-21T02:14:33.715Z,101757.88
2023-04-21T02:17:03.303Z,101748.31
2023-04-21T02:19:30.612Z,101750.13
2023-04-21T02:21:57.472Z,101757.22
2023-04-21T02:24:24.447Z,101757.22
2023-04-21T02:26:51.428Z,101765.16
2023-04-21T02:29:18.578Z,101753.94
2023-04-21T02:31:57.892Z,101761.84
2023-04-21T02:34:30.125Z,101755.91
2023-04-21T02:36:57.048Z,101757.56
2023-04-21T02:39:23.939Z,101751.63
2023-04-21T02:41:50.871Z,101749.78
2023-04-21T02:44:17.982Z,101761.03
2023-04-21T02:46:46.294Z,101753.09
2023-04-21T02:49:13.433Z,101752.44
2023-04-21T02:51:40.540Z,101763.03
2023-04-21T02:54:07.510Z,101745.34
2023-04-21T02:56:34.656Z,101751.78
2023-04-21T02:59:01.612Z,101748.97
2023-04-21T03:01:28.492Z,101744.34
2023-04-21T03:03:56.911Z,101745.34
2023-04-21T03:06:24.126Z,101749.97
2023-04-21T03:08:52.043Z,101757.25
2023-04-21T03:11:18.935Z,101751.78
2023-04-21T03:13:46.031Z,101741.69
2023-04-21T03:16:13.448Z,101751.94
2023-04-21T03:18:40.527Z,101734.44
2023-04-21T03:21:08.723Z,101743.03
2023-04-21T03:23:35.697Z,101744.19
2023-04-21T03:26:07.165Z,101745.16
2023-04-21T03:28:34.188Z,101742.69
2023-04-21T03:31:01.113Z,101736.75
2023-04-21T03:33:28.095Z,101740.38
2023-04-21T03:35:54.957Z,101734.13
2023-04-21T03:38:23.148Z,101733.47
2023-04-21T03:40:51.017Z,101740.38
2023-04-21T03:43:18.013Z,101749.78
2023-04-21T03:45:44.973Z,101737.41
2023-04-21T03:48:12.015Z,101734.78
2023-04-21T03:50:39.169Z,101738.06
2023-04-21T03:53:06.096Z,101738.06
2023-04-21T03:55:34.282Z,101735.09
2023-04-21T03:58:01.130Z,101733.44
2023-04-21T04:00:28.007Z,101739.38
2023-04-21T04:02:55.069Z,101732.44
2023-04-21T04:05:22.354Z,101729.44
2023-04-21T04:07:49.314Z,101734.09
2023-04-21T04:10:16.326Z,101742.00
2023-04-21T04:12:44.576Z,101735.09
2023-04-21T04:15:11.759Z,101729.16
2023-04-21T04:17:38.656Z,101728.13
2023-04-21T04:20:08.245Z,101728.00
2023-04-21T04:22:35.370Z,101729.63
2023-04-21T04:25:02.662Z,101737.06
2023-04-21T04:27:29.714Z,101740.34
2023-04-21T04:29:57.908Z,101742.84
2023-04-21T04:32:28.249Z,101744.47
2023-04-21T04:34:58.779Z,101747.78
2023-04-21T04:37:25.664Z,101749.44
2023-04-21T04:39:53.927Z,101751.91
2023-04-21T04:42:20.967Z,101747.28
2023-04-21T04:44:48.043Z,101748.94
2023-04-21T04:47:16.316Z,101750.59
2023-04-21T04:49:43.389Z,101757.38
2023-04-21T04:52:10.408Z,101763.13
2023-04-21T04:54:37.322Z,101765.59
2023-04-21T04:57:04.440Z,101763.47
2023-04-21T04:59:31.477Z,101764.94
2023-04-21T05:01:58.514Z,101763.78
2023-04-21T05:04:27.376Z,101767.06
2023-04-21T05:06:54.706Z,101761.78
2023-04-21T05:09:21.752Z,101767.06
2023-04-21T05:11:48.838Z,101757.47
2023-04-21T05:14:16.059Z,101760.13
2023-04-21T05:16:43.750Z,101774.34
2023-04-21T05:19:10.776Z,101773.00
2023-04-21T05:21:38.945Z,101768.38
2023-04-21T05:24:06.072Z,101763.25
2023-04-21T05:26:33.012Z,101766.19
2023-04-21T05:28:59.988Z,101766.69
2023-04-21T05:31:27.353Z,101762.69
2023-04-21T05:33:54.360Z,101765.66
2023-04-21T05:36:21.284Z,101759.19
2023-04-21T05:38:49.555Z,101759.00
2023-04-21T05:41:16.448Z,101769.91
2023-04-21T05:43:43.611Z,101762.66
2023-04-21T05:46:11.501Z,101765.94
2023-04-21T05:48:38.625Z,101772.53
2023-04-21T05:51:10.360Z,101775.50
2023-04-21T05:53:37.541Z,101768.00
2023-04-21T05:56:08.694Z,101764.53
2023-04-21T05:58:36.013Z,101762.84
2023-04-21T06:01:03.322Z,101761.16
2023-04-21T06:03:32.007Z,101763.28
2023-04-21T06:06:01.278Z,101757.63
2023-04-21T06:08:28.217Z,101759.75
2023-04-21T06:10:55.466Z,101753.75
2023-04-21T06:13:23.885Z,101749.94
2023-04-21T06:15:50.791Z,101754.53
2023-04-21T06:18:17.777Z,101747.06
2023-04-21T06:20:50.866Z,101748.97
2023-04-21T06:23:18.152Z,101742.31
2023-04-21T06:25:45.371Z,101745.91
2023-04-21T06:28:12.721Z,101744.66
2023-04-21T06:30:41.077Z,101745.88
2023-04-21T06:33:08.084Z,101749.47
2023-04-21T06:35:35.071Z,101751.38
2023-04-21T06:38:02.472Z,101740.53
2023-04-21T06:40:29.391Z,101745.59
2023-04-21T06:42:56.288Z,101744.69
2023-04-21T06:45:23.524Z,101744.41
2023-04-21T06:47:51.802Z,101727.59
2023-04-21T06:50:18.904Z,101719.50
2023-04-21T06:52:45.782Z,101725.28
2023-04-21T06:55:12.898Z,101727.66
2023-04-21T06:57:39.800Z,101726.91
2023-04-21T07:00:08.473Z,101726.44
2023-04-21T07:02:35.726Z,101725.31
2023-04-21T07:05:04.766Z,101719.50
2023-04-21T07:07:31.698Z,101722.06
2023-04-21T07:09:58.658Z,101720.09
2023-04-21T07:12:25.692Z,101725.13
2023-04-21T07:14:52.589Z,101725.44
2023-04-21T07:17:19.480Z,101716.78
2023-04-21T07:19:46.401Z,101719.94
2023-04-21T07:22:14.757Z,101724.31
2023-04-21T07:24:41.656Z,101714.97
2023-04-21T07:27:08.547Z,101713.88
2023-04-21T07:29:35.552Z,101715.19
2023-04-21T07:32:02.544Z,101712.56
2023-04-21T07:34:29.431Z,101707.50
2023-04-21T07:36:56.917Z,101697.72
2023-04-21T07:39:25.178Z,101699.97
2023-04-21T07:41:52.087Z,101702.22
2023-04-21T07:44:18.976Z,101698.69
2023-04-21T07:46:46.336Z,101698.69
2023-04-21T07:49:13.891Z,101693.06
2023-04-21T07:51:41.370Z,101689.66
2023-04-21T07:54:08.328Z,101685.09
2023-04-21T07:56:36.570Z,101688.22
2023-04-21T07:59:03.567Z,101691.34
2023-04-21T08:01:30.654Z,101685.53
2023-04-21T08:03:57.657Z,101685.56
2023-04-21T08:06:24.891Z,101682.84
2023-04-21T08:08:57.544Z,101688.13
2023-04-21T08:11:28.522Z,101679.25
2023-04-21T08:14:00.107Z,101675.41
2023-04-21T08:16:27.163Z,101670.75
2023-04-21T08:18:54.233Z,101685.34
2023-04-21T08:21:21.254Z,101680.34
2023-04-21T08:23:48.162Z,101677.88
2023-04-21T08:26:15.585Z,101680.19
2023-04-21T08:28:42.518Z,101681.13
2023-04-21T08:31:11.025Z,101675.47
2023-04-21T08:33:49.905Z,101680.06
2023-04-21T08:36:29.542Z,101675.38
2023-04-21T08:39:04.071Z,101677.84
2023-04-21T08:41:31.585Z,101664.69
2023-04-21T08:43:59.658Z,101670.16
2023-04-21T08:46:32.389Z,101664.69
2023-04-21T08:49:00.210Z,101663.94
2023-04-21T08:51:28.684Z,101651.03
2023-04-21T08:53:55.918Z,101654.91
2023-04-21T08:56:26.198Z,101662.25
2023-04-21T08:58:53.967Z,101656.41
2023-04-21T09:01:21.429Z,101655.28
2023-04-21T09:03:49.913Z,101647.75
2023-04-21T09:06:20.646Z,101641.84
2023-04-21T09:08:57.713Z,101650.22
2023-04-21T09:11:54.765Z,101646.44
2023-04-21T09:14:21.862Z,101648.81
2023-04-21T09:17:01.154Z,101645.13
2023-04-21T09:19:30.592Z,101644.97
2023-04-21T09:22:00.429Z,101644.25
2023-04-21T09:24:27.867Z,101641.22
2023-04-21T09:26:55.225Z,101636.47
2023-04-21T09:29:23.984Z,101634.22
2023-04-21T09:31:52.678Z,101631.03
2023-04-21T09:34:24.735Z,101631.25
2023-04-21T09:37:02.517Z,101633.84
2023-04-21T09:39:43.087Z,101625.34
2023-04-21T09:42:13.849Z,101625.81
2023-04-21T09:44:53.298Z,101626.25
2023-04-21T09:47:27.274Z,101623.16
2023-04-21T09:49:56.273Z,101619.59
2023-04-21T09:52:28.895Z,101615.38
2023-04-21T09:55:04.433Z,101611.84
2023-04-21T09:57:37.656Z,101606.78
2023-04-21T10:00:09.668Z,101611.22
2023-04-21T10:02:45.126Z,101606.75
2023-04-21T10:05:12.908Z,101593.97
2023-04-21T10:07:41.512Z,101593.56
2023-04-21T10:10:18.857Z,101589.59
2023-04-21T10:12:46.372Z,101589.69
2023-04-21T10:15:31.584Z,101585.16
2023-04-21T10:18:17.047Z,101582.38
2023-04-21T10:20:56.083Z,101575.84
2023-04-21T10:23:30.409Z,101579.75
2023-04-21T10:26:12.809Z,101566.69
2023-04-21T10:28:47.314Z,101567.00
2023-04-21T10:31:20.313Z,101575.28
2023-04-21T10:34:13.327Z,101553.00
2023-04-21T10:36:51.722Z,101555.28
2023-04-21T10:39:35.699Z,101559.13
2023-04-21T10:42:37.040Z,101556.38
2023-04-21T10:45:12.102Z,101556.38
2023-04-21T10:47:49.695Z,101543.94
2023-04-21T10:50:23.874Z,101544.94
2023-04-21T10:52:59.156Z,101548.63
2023-04-21T10:55:29.976Z,101529.00
2023-04-21T10:57:59.080Z,101522.06
2023-04-21T11:00:26.330Z,101532.53
2023-04-21T11:03:00.230Z,101523.94
2023-04-21T11:05:30.174Z,101512.28
2023-04-21T11:08:12.750Z,101510.94
2023-04-21T11:10:59.017Z,101490.69
2023-04-21T11:13:33.364Z,101508.38
2023-04-21T11:16:04.854Z,101500.28
2023-04-21T11:18:41.294Z,101495.34
2023-04-21T11:21:22.430Z,101506.13
2023-04-21T11:23:54.692Z,101501.13
2023-04-21T11:26:34.440Z,101509.63
2023-04-21T11:29:07.291Z,101497.06
2023-04-21T11:31:36.222Z,101482.50
2023-04-21T11:34:06.899Z,101487.03
2023-04-21T11:36:34.515Z,101479.38
2023-04-21T11:39:08.066Z,101481.81
2023-04-21T11:41:49.066Z,101471.81
2023-04-21T11:44:33.405Z,101459.19
2023-04-21T11:47:00.907Z,101465.88
2023-04-21T11:49:29.463Z,101455.34
2023-04-21T11:51:56.659Z,101449.38
2023-04-21T11:54:24.360Z,101453.50
2023-04-21T11:56:55.090Z,101456.75
2023-04-21T11:59:26.505Z,101447.53
2023-04-21T12:01:54.979Z,101449.19
2023-04-21T12:04:23.749Z,101446.75
2023-04-21T12:06:59.011Z,101444.63
2023-04-21T12:09:28.183Z,101435.38
2023-04-21T12:11:58.896Z,101436.41
2023-04-21T12:14:29.344Z,101437.66
2023-04-21T12:16:58.783Z,101419.56
2023-04-21T12:19:37.927Z,101422.16
2023-04-21T12:22:08.401Z,101422.03
2023-04-21T12:24:36.827Z,101414.69
2023-04-21T12:27:06.440Z,101415.84
2023-04-21T12:29:38.341Z,101409.56
2023-04-21T12:32:06.375Z,101403.84
2023-04-21T12:34:34.273Z,101391.25
2023-04-21T12:37:02.036Z,101400.06
2023-04-21T12:39:30.118Z,101405.66
2023-04-21T12:41:57.709Z,101412.44
2023-04-21T12:44:26.499Z,101412.91
2023-04-21T12:46:54.208Z,101394.13
2023-04-21T12:49:21.126Z,101398.81
2023-04-21T12:51:49.474Z,101394.47
2023-04-21T12:54:17.611Z,101391.31
2023-04-21T12:56:44.736Z,101385.00
2023-04-21T12:59:12.000Z,101384.88
2023-04-21T13:01:42.509Z,101387.69
2023-04-21T13:04:10.162Z,101372.50
2023-04-21T13:06:39.293Z,101379.63
2023-04-21T13:09:06.302Z,101369.66
2023-04-21T13:11:33.389Z,101362.47
2023-04-21T13:14:00.562Z,101361.25
2023-04-21T13:16:30.082Z,101356.59
2023-04-21T13:18:59.001Z,101347.22
2023-04-21T13:21:26.349Z,101350.91
2023-04-21T13:23:53.391Z,101354.19
2023-04-21T13:26:21.015Z,101349.16
2023-04-21T13:28:48.271Z,101361.59
2023-04-21T13:31:15.354Z,101348.66
2023-04-21T13:33:42.461Z,101352.31
2023-04-21T13:36:12.845Z,101339.50
2023-04-21T13:38:40.766Z,101325.28
2023-04-21T13:41:08.479Z,101343.88
2023-04-21T13:43:35.695Z,101339.03
2023-04-21T13:46:02.934Z,101326.91
2023-04-21T13:48:30.050Z,101315.63
2023-04-21T13:50:57.058Z,101325.88
2023-04-21T13:53:25.479Z,101322.88
2023-04-21T13:55:54.554Z,101312.94
2023-04-21T13:58:22.053Z,101316.06
2023-04-21T14:00:49.232Z,101311.00
2023-04-21T14:03:16.687Z,101306.59
2023-04-21T14:05:44.177Z,101300.59
2023-04-21T14:08:11.464Z,101293.06
2023-04-21T14:10:39.986Z,101294.63
2023-04-21T14:13:07.056Z,101291.00
2023-04-21T14:15:34.121Z,101292.28
2023-04-21T14:18:01.293Z,101286.28
2023-04-21T14:20:28.562Z,101290.16
2023-04-21T14:22:55.620Z,101295.09
2023-04-21T14:25:22.644Z,101288.34
2023-04-21T14:27:50.953Z,101280.69
2023-04-21T14:30:18.042Z,101274.84
2023-04-21T14:32:47.663Z,101271.47
2023-04-21T14:35:18.117Z,101261.97
2023-04-21T14:37:45.200Z,101273.28
2023-04-21T14:40:12.201Z,101257.06
2023-04-21T14:42:39.111Z,101255.66
2023-04-21T14:45:09.820Z,101251.63
2023-04-21T14:47:37.955Z,101253.69
2023-04-21T14:50:07.167Z,101248.75
2023-04-21T14:52:34.459Z,101257.81
2023-04-21T14:55:01.502Z,101239.97
2023-04-21T14:57:28.480Z,101248.72
2023-04-21T14:59:55.934Z,101251.75
2023-04-21T15:02:24.566Z,101247.31
2023-04-21T15:04:51.871Z,101246.16
2023-04-21T15:07:23.902Z,101237.28
2023-04-21T15:09:52.113Z,101234.28
2023-04-21T15:12:19.260Z,101213.09
2023-04-21T15:14:46.318Z,101230.97
2023-04-21T15:17:13.544Z,101223.00
2023-04-21T15:19:42.106Z,101218.78
2023-04-21T15:22:09.259Z,101214.38
2023-04-21T15:24:36.223Z,101208.41
2023-04-21T15:27:07.167Z,101201.22
2023-04-21T15:29:37.550Z,101200.63
2023-04-21T15:32:04.932Z,101198.69
2023-04-21T15:34:31.936Z,101204.44
2023-04-21T15:37:00.327Z,101190.34
2023-04-21T15:39:27.288Z,101186.31
2023-04-21T15:41:55.078Z,101187.88
2023-04-21T15:44:22.353Z,101174.94
2023-04-21T15:46:50.533Z,101174.06
2023-04-21T15:49:18.072Z,101184.00
2023-04-21T15:51:46.117Z,101178.22
2023-04-21T15:54:14.558Z,101177.41
2023-04-21T15:56:41.493Z,101181.69
2023-04-21T15:59:08.619Z,101180.00
2023-04-21T16:01:36.001Z,101177.16
2023-04-21T16:04:03.431Z,101178.50
2023-04-21T16:06:31.244Z,101175.91
2023-04-21T16:08:58.341Z,101165.41
2023-04-21T16:11:28.035Z,101179.06
2023-04-21T16:13:55.545Z,101162.56
2023-04-21T16:16:22.720Z,101170.00
2023-04-21T16:18:49.641Z,101175.47
2023-04-21T16:21:16.673Z,101154.84
2023-04-21T16:23:43.771Z,101152.03
2023-04-21T16:26:10.736Z,101161.19
2023-04-21T16:28:39.075Z,101151.34
2023-04-21T16:31:06.275Z,101152.91
2023-04-21T16:33:33.309Z,101147.47
2023-04-21T16:36:00.389Z,101149.09
2023-04-21T16:38:27.329Z,101141.47
2023-04-21T16:40:54.312Z,101141.59
2023-04-21T16:43:21.261Z,101137.53
2023-04-21T16:45:49.607Z,101140.63
2023-04-21T16:48:16.646Z,101129.63
2023-04-21T16:50:45.131Z,101133.25
2023-04-21T16:53:12.207Z,101130.16
2023-04-21T16:55:39.536Z,101121.03
2023-04-21T16:58:06.471Z,101123.25
2023-04-21T17:00:33.542Z,101128.69
2023-04-21T17:03:01.950Z,101134.66
2023-04-21T17:05:28.998Z,101121.72
2023-04-21T17:07:56.126Z,101120.16
2023-04-21T17:10:23.154Z,101115.03
2023-04-21T17:12:50.052Z,101122.66
2023-04-21T17:15:17.147Z,101120.81
2023-04-21T17:17:44.818Z,101121.41
2023-04-21T17:20:14.408Z,101124.94
2023-04-21T17:22:42.903Z,101120.91
2023-04-21T17:25:11.193Z,101122.56
2023-04-21T17:27:38.806Z,101115.81
2023-04-21T17:30:08.933Z,101112.91
2023-04-21T17:32:36.502Z,101112.09
2023-04-21T17:35:05.634Z,101106.41
2023-04-21T17:37:34.501Z,101116.41
2023-04-21T17:40:02.891Z,101104.00
2023-04-21T17:42:31.027Z,101102.63
2023-04-21T17:44:57.935Z,101091.28
2023-04-21T17:47:24.932Z,101098.81
2023-04-21T17:49:52.075Z,101098.50
2023-04-21T17:52:19.360Z,101099.88
2023-04-21T17:54:47.690Z,101098.19
2023-04-21T17:57:14.669Z,101100.31
2023-04-21T17:59:41.974Z,101100.00
2023-04-21T18:02:09.118Z,101095.34
2023-04-21T18:04:36.867Z,101105.53
2023-04-21T18:07:15.311Z,101099.03
2023-04-21T18:09:49.831Z,101102.22
2023-04-21T18:12:19.876Z,101099.75
2023-04-21T18:14:46.813Z,101103.19
2023-04-21T18:17:15.955Z,101105.03
2023-04-21T18:19:44.212Z,101096.34
2023-04-21T18:22:11.995Z,101094.09
2023-04-21T18:24:39.899Z,101105.13
2023-04-21T18:27:07.399Z,101094.25
2023-04-21T18:29:37.280Z,101097.41
2023-04-21T18:32:26.151Z,101099.47
2023-04-21T18:34:56.349Z,101094.56
2023-04-21T18:37:23.298Z,101092.88
2023-04-21T18:39:50.202Z,101101.97
2023-04-21T18:42:19.640Z,101103.47
2023-04-21T18:44:48.223Z,101110.69
2023-04-21T18:47:15.574Z,101106.56
2023-04-21T18:49:42.640Z,101101.66
2023-04-21T18:52:09.698Z,101095.66
2023-04-21T18:54:36.968Z,101095.28
2023-04-21T18:57:04.553Z,101095.47
2023-04-21T18:59:31.892Z,101096.47
2023-04-21T19:02:01.149Z,101095.84
2023-04-21T19:04:28.252Z,101097.91
2023-04-21T19:06:55.348Z,101095.38
2023-04-21T19:09:22.767Z,101096.63
2023-04-21T19:11:49.834Z,101101.91
2023-04-21T19:14:16.732Z,101098.38
2023-04-21T19:16:43.661Z,101101.81
2023-04-21T19:19:12.226Z,101103.28
2023-04-21T19:21:39.417Z,101088.97
2023-04-21T19:24:06.808Z,101095.31
2023-04-21T19:26:34.486Z,101085.22
2023-04-21T19:29:01.876Z,101081.34
2023-04-21T19:31:29.368Z,101087.94
2023-04-21T19:33:56.576Z,101089.16
2023-04-21T19:36:25.215Z,101090.09
2023-04-21T19:38:52.550Z,101092.72
2023-04-21T19:41:19.837Z,101091.56
2023-04-21T19:43:47.103Z,101097.41
2023-04-21T19:46:14.166Z,101103.28
2023-04-21T19:48:42.714Z,101110.19
2023-04-21T19:51:09.739Z,101104.72
2023-04-21T19:53:37.972Z,101112.19
2023-04-21T19:56:05.364Z,101107.31
2023-04-21T19:58:40.438Z,101107.00
2023-04-21T20:01:08.221Z,101110.41
2023-04-21T20:03:35.451Z,101100.41
2023-04-21T20:06:04.696Z,101106.00
2023-04-21T20:08:31.813Z,101115.56
2023-04-21T20:11:00.118Z,101116.06
2023-04-21T20:13:27.148Z,101102.53
2023-04-21T20:15:55.246Z,101109.22
2023-04-21T20:18:22.177Z,101106.44
2023-04-21T20:20:49.081Z,101107.34
2023-04-21T20:23:16.377Z,101112.88
2023-04-21T20:25:43.343Z,101106.38
2023-04-21T20:28:11.832Z,101105.19
2023-04-21T20:30:38.815Z,101098.69
2023-04-21T20:33:05.802Z,101098.13
2023-04-21T20:35:39.127Z,101092.66
2023-04-21T20:38:07.860Z,101098.97
2023-04-21T20:40:36.190Z,101087.09
2023-04-21T20:43:06.205Z,101091.28
2023-04-21T20:45:34.959Z,101090.16
2023-04-21T20:48:01.884Z,101086.53
2023-04-21T20:50:28.863Z,101083.28
2023-04-21T20:52:56.632Z,101095.28
2023-04-21T20:55:23.561Z,101098.19
2023-04-21T20:57:51.022Z,101094.13
2023-04-21T21:00:18.833Z,101090.84
2023-04-21T21:02:47.324Z,101093.22
2023-04-21T21:05:14.368Z,101090.78
2023-04-21T21:07:41.356Z,101090.16
2023-04-21T21:10:11.178Z,101092.63
2023-04-21T21:12:38.227Z,101094.94
2023-04-21T21:15:06.572Z,101093.56
2023-04-21T21:17:33.830Z,101094.00
2023-04-21T21:20:02.123Z,101101.44
2023-04-21T21:22:29.064Z,101102.97
2023-04-21T21:24:56.027Z,101102.38
2023-04-21T21:27:23.679Z,101098.06
2023-04-21T21:29:50.712Z,101104.94
2023-04-21T21:32:17.771Z,101101.13
2023-04-21T21:34:44.740Z,101104.50
2023-04-21T21:37:13.014Z,101098.44
2023-04-21T21:39:40.096Z,101097.75
2023-04-21T21:42:07.118Z,101100.28
2023-04-21T21:44:34.021Z,101094.81
2023-04-21T21:47:01.218Z,101093.28
2023-04-21T21:49:28.208Z,101100.38
2023-04-21T21:51:55.274Z,101091.44
2023-04-21T21:54:23.541Z,101085.69
2023-04-21T21:56:50.585Z,101084.53
2023-04-21T21:59:17.567Z,101083.84
2023-04-21T22:01:44.711Z,101082.03
2023-04-21T22:04:11.781Z,101083.28
2023-04-21T22:06:39.061Z,101072.13
2023-04-21T22:09:06.112Z,101073.84
2023-04-21T22:11:34.638Z,101080.13
2023-04-21T22:14:14.516Z,101069.88
2023-04-21T22:16:48.585Z,101066.25
2023-04-21T22:19:17.545Z,101072.66
2023-04-21T22:21:44.518Z,101069.59
2023-04-21T22:24:11.518Z,101068.66
2023-04-21T22:26:39.930Z,101073.88
2023-04-21T22:29:06.928Z,101071.06
2023-04-21T22:31:34.036Z,101080.09
2023-04-21T22:34:01.155Z,101066.16
2023-04-21T22:36:28.213Z,101075.22
2023-04-21T22:38:55.246Z,101069.31
2023-04-21T22:41:22.407Z,101074.03
2023-04-21T22:43:51.578Z,101076.13
2023-04-21T22:46:19.090Z,101075.97
2023-04-21T22:48:46.711Z,101079.13
2023-04-21T22:51:14.359Z,101078.50
2023-04-21T22:53:41.277Z,101074.66
2023-04-21T22:56:08.270Z,101074.31
2023-04-21T22:58:35.751Z,101073.91
2023-04-21T23:01:04.087Z,101058.31
2023-04-21T23:03:31.382Z,101061.66
2023-04-21T23:05:58.902Z,101062.91
2023-04-21T23:08:26.208Z,101065.22
2023-04-21T23:10:53.235Z,101054.75
2023-04-21T23:13:20.490Z,101051.97
2023-04-21T23:15:47.357Z,101054.00
2023-04-21T23:18:15.751Z,101059.59
2023-04-21T23:20:42.716Z,101054.47
2023-04-21T23:23:09.690Z,101054.91
2023-04-21T23:25:36.635Z,101043.66
2023-04-21T23:28:03.583Z,101040.41
2023-04-21T23:30:30.579Z,101044.09
2023-04-21T23:32:57.651Z,101043.50
2023-04-21T23:35:26.168Z,101040.25
2023-04-21T23:37:53.060Z,101045.00
2023-04-21T23:40:20.174Z,101034.75
2023-04-21T23:42:47.756Z,101034.16
2023-04-21T23:45:15.522Z,101029.25
2023-04-21T23:47:42.586Z,101032.16
2023-04-21T23:50:11.025Z,101028.91
2023-04-21T23:52:41.925Z,101021.94
2023-04-21T23:55:11.873Z,101023.19
2023-04-21T23:57:38.899Z,101020.50
